Time;durP1;ratioP1;P1;durP2;ratioP2;P2;SDS_P1;SDS_P2;PMS_P1;PMS_P2;Temp;Humidity;BMP_temperature;BMP_pressure;BME280_temperature;BME280_humidity;BME280_pressure;Samples;Min_cycle;Max_cycle;Signal;HPM_P1;HPM_P2
2022/05/25 00:00:15;;;;;;;2.60;1.90;;;;;;;9.79;84.44;98271.56;4187058;28;20372;-70
2022/05/25 00:02:17;;;;;;;2.38;1.60;;;;;;;9.79;84.38;98269.59;4187002;28;20253;-70
2022/05/25 00:04:18;;;;;;;2.22;1.60;;;;;;;9.76;83.36;98267.63;4187340;28;20028;-70
2022/05/25 00:06:18;;;;;;;4.28;2.10;;;;;;;9.63;84.73;98268.22;4187013;28;20028;-70
2022/05/25 00:08:19;;;;;;;3.47;1.88;;;;;;;9.53;84.08;98270.50;4187129;28;20032;-70
2022/05/25 00:10:19;;;;;;;3.80;1.80;;;;;;;9.42;85.40;98274.28;4186857;28;20024;-70
2022/05/25 00:12:21;;;;;;;1.80;1.50;;;;;;;9.38;85.19;98270.69;4192329;27;20028;-71
2022/05/25 00:14:22;;;;;;;3.03;1.80;;;;;;;9.41;85.22;98278.22;4200599;27;20468;-71
2022/05/25 00:16:22;;;;;;;3.67;1.60;;;;;;;9.53;85.32;98278.78;4186904;28;20268;-70
2022/05/25 00:18:23;;;;;;;2.88;2.08;;;;;;;9.57;85.86;98282.38;4197344;27;20727;-70
2022/05/25 00:20:23;;;;;;;2.10;1.60;;;;;;;9.57;85.02;98287.09;4186785;28;20120;-70
2022/05/25 00:22:24;;;;;;;3.63;1.95;;;;;;;9.52;86.13;98304.00;4187126;28;20491;-70
2022/05/25 00:24:24;;;;;;;2.17;1.63;;;;;;;9.37;86.14;98299.47;4186544;28;20048;-70
2022/05/25 00:26:25;;;;;;;2.60;1.90;;;;;;;9.18;87.53;98295.66;4186800;28;20055;-71
2022/05/25 00:28:25;;;;;;;8.00;1.92;;;;;;;9.03;87.70;98291.13;4185812;28;20097;-70
2022/05/25 00:30:27;;;;;;;5.85;1.73;;;;;;;8.94;88.38;98290.59;4186680;28;20035;-70
2022/05/25 00:32:27;;;;;;;2.22;1.83;;;;;;;8.91;87.91;98274.75;4186403;28;20123;-70
2022/05/25 00:34:28;;;;;;;2.83;2.10;;;;;;;8.80;89.10;98280.13;4190124;28;20158;-71
2022/05/25 00:36:28;;;;;;;3.28;1.83;;;;;;;8.73;89.68;98285.53;4196891;27;20032;-70
2022/05/25 00:38:28;;;;;;;3.65;1.83;;;;;;;8.65;90.50;98281.88;4198464;27;20041;-70
2022/05/25 00:40:41;;;;;;;4.32;1.70;;;;;;;8.57;91.11;98282.13;4186088;28;20347;-70
2022/05/25 00:42:42;;;;;;;2.65;1.90;;;;;;;8.54;90.87;98274.59;4186745;28;20469;-70
2022/05/25 00:44:42;;;;;;;6.43;1.80;;;;;;;8.50;91.35;98284.75;4186479;28;20029;-70
2022/05/25 00:46:43;;;;;;;2.25;1.70;;;;;;;8.47;92.31;98289.06;4186226;28;20493;-70
2022/05/25 00:48:50;;;;;;;3.05;1.88;;;;;;;8.44;92.58;98285.09;4185582;28;20029;-71
2022/05/25 00:53:10;;;;;;;1.65;1.52;;;;;;;8.40;92.29;98299.97;4192670;28;20121;-70
2022/05/25 00:55:15;;;;;;;3.85;1.90;;;;;;;8.41;91.64;98305.09;4202503;27;20040;-69
2022/05/25 00:57:18;;;;;;;3.80;1.88;;;;;;;8.42;91.91;98305.91;4200759;27;20054;-69
2022/05/25 00:59:29;;;;;;;2.53;1.80;;;;;;;8.42;91.83;98312.22;4185031;28;20435;-69
2022/05/25 01:01:30;;;;;;;3.25;1.85;;;;;;;8.40;92.06;98303.50;4193327;28;20032;-69
2022/05/25 01:03:32;;;;;;;3.13;2.20;;;;;;;8.38;93.45;98303.09;4195709;27;20147;-71
2022/05/25 01:05:39;;;;;;;2.38;1.70;;;;;;;8.33;94.60;98305.31;4200732;27;20048;-70
2022/05/25 01:07:55;;;;;;;2.80;1.98;;;;;;;8.34;95.91;98309.66;4197190;27;20055;-71
2022/05/25 01:09:55;;;;;;;2.70;2.00;;;;;;;8.32;97.56;98304.53;4185779;28;20115;-71
2022/05/25 01:12:14;;;;;;;3.88;2.10;;;;;;;8.35;97.54;98300.25;4186094;28;20079;-71
2022/05/25 01:14:52;;;;;;;4.13;2.38;;;;;;;8.35;96.98;98301.06;4186263;28;20040;-72
2022/05/25 01:17:03;;;;;;;3.17;2.45;;;;;;;8.36;95.70;98308.19;4185488;28;20053;-70
2022/05/25 01:19:03;;;;;;;4.45;3.00;;;;;;;8.36;95.85;98310.94;4185209;28;20118;-71
2022/05/25 01:21:20;;;;;;;2.20;1.98;;;;;;;8.32;97.04;98314.75;4186175;28;20129;-71
2022/05/25 01:23:41;;;;;;;3.28;2.20;;;;;;;8.23;97.17;98303.19;4185653;28;20314;-71
2022/05/25 01:26:00;;;;;;;3.53;2.05;;;;;;;8.21;98.22;98311.03;4186008;28;20063;-71
2022/05/25 01:28:19;;;;;;;2.97;2.33;;;;;;;8.18;97.29;98307.03;4185394;28;20056;-71
2022/05/25 01:30:41;;;;;;;3.58;2.50;;;;;;;8.17;97.70;98313.69;4185687;28;20303;-72
2022/05/25 01:33:09;;;;;;;3.33;2.00;;;;;;;8.14;97.56;98295.94;4184929;28;20427;-72
2022/05/25 01:35:28;;;;;;;4.53;2.40;;;;;;;8.12;97.73;98291.97;4185460;28;20094;-71
2022/05/25 01:37:37;;;;;;;4.22;2.22;;;;;;;8.09;97.32;98299.00;4193036;28;20839;-70
2022/05/25 01:39:44;;;;;;;2.95;2.15;;;;;;;8.06;95.40;98301.69;4185352;28;20476;-72
2022/05/25 01:42:07;;;;;;;3.08;2.00;;;;;;;8.06;96.03;98305.25;4185947;28;20355;-71
2022/05/25 01:44:14;;;;;;;3.85;2.03;;;;;;;8.04;96.51;98304.03;4190847;27;20218;-72
2022/05/25 01:46:23;;;;;;;2.90;2.30;;;;;;;7.99;97.31;98296.84;4184986;28;20107;-72
2022/05/25 01:48:25;;;;;;;4.07;2.65;;;;;;;8.01;97.16;98299.22;4189824;27;20306;-72
2022/05/25 01:50:33;;;;;;;5.25;2.00;;;;;;;8.05;94.93;98302.84;4200289;27;20047;-72
2022/05/25 01:52:43;;;;;;;4.53;2.42;;;;;;;8.03;94.60;98305.97;4198146;27;20060;-72
2022/05/25 01:54:55;;;;;;;2.55;1.90;;;;;;;8.08;93.83;98304.88;4189923;28;20055;-71
2022/05/25 01:56:59;;;;;;;2.73;2.43;;;;;;;8.16;93.24;98296.38;4194121;27;20044;-70
2022/05/25 01:59:03;;;;;;;2.83;2.08;;;;;;;8.14;93.45;98295.16;4184809;28;20720;-71
2022/05/25 02:01:07;;;;;;;3.70;2.08;;;;;;;8.10;93.29;98295.06;4185956;28;20402;-71
2022/05/25 02:05:28;;;;;;;2.92;2.20;;;;;;;7.84;96.05;98287.50;4197752;27;20550;-71
2022/05/25 02:08:06;;;;;;;2.78;1.88;;;;;;;7.82;97.35;98283.53;4201269;28;20052;-70
2022/05/25 02:10:45;;;;;;;2.90;2.40;;;;;;;7.80;96.31;98283.91;4200488;27;20048;-71
2022/05/25 02:12:58;;;;;;;4.93;2.33;;;;;;;7.77;97.27;98275.56;4171725;28;20076;-71
2022/05/25 02:15:11;;;;;;;3.00;2.35;;;;;;;7.79;100.00;98279.56;4189148;28;20036;-71
2022/05/25 02:17:46;;;;;;;2.88;2.40;;;;;;;7.83;100.00;98285.91;4188800;28;20045;-71
2022/05/25 02:20:02;;;;;;;3.65;2.70;;;;;;;7.90;100.00;98290.78;4188370;28;20761;-71
2022/05/25 02:22:09;;;;;;;3.35;2.50;;;;;;;7.91;100.00;98286.06;4191781;27;20048;-72
2022/05/25 02:24:16;;;;;;;6.13;2.63;;;;;;;7.87;100.00;98286.78;4204897;27;20075;-71
2022/05/25 02:26:21;;;;;;;4.20;2.30;;;;;;;7.87;100.00;98288.75;4188349;28;20063;-72
2022/05/25 02:28:32;;;;;;;3.22;2.25;;;;;;;7.86;100.00;98295.41;4187858;28;20120;-71
2022/05/25 02:30:37;;;;;;;4.55;2.20;;;;;;;7.88;100.00;98293.91;4188790;28;20041;-71
2022/05/25 02:32:43;;;;;;;2.20;2.00;;;;;;;7.84;100.00;98295.78;4188936;28;20347;-72
2022/05/25 02:34:48;;;;;;;5.15;2.05;;;;;;;7.88;100.00;98299.41;4188840;28;20093;-71
2022/05/25 02:36:49;;;;;;;3.17;2.15;;;;;;;7.87;100.00;98300.56;4188766;28;20048;-71
2022/05/25 02:38:50;;;;;;;3.38;1.90;;;;;;;7.87;100.00;98295.06;4203145;27;20127;-70
2022/05/25 02:40:50;;;;;;;6.15;2.47;;;;;;;7.84;100.00;98289.47;4198156;28;20068;-71
2022/05/25 02:42:50;;;;;;;4.80;2.83;;;;;;;7.96;100.00;98294.03;4187925;28;20478;-71
2022/05/25 02:44:51;;;;;;;5.68;1.85;;;;;;;7.99;100.00;98293.28;4189660;28;20045;-71
2022/05/25 02:46:52;;;;;;;5.63;2.30;;;;;;;7.99;100.00;98294.09;4194870;27;20533;-72
2022/05/25 02:48:53;;;;;;;3.05;2.00;;;;;;;8.04;100.00;98296.56;4187672;28;20091;-71
2022/05/25 02:50:53;;;;;;;3.28;1.67;;;;;;;8.09;100.00;98307.25;4200860;28;20075;-71
2022/05/25 02:52:53;;;;;;;7.10;2.78;;;;;;;8.15;99.43;98307.75;4204276;27;20795;-71
2022/05/25 02:54:54;;;;;;;5.30;1.67;;;;;;;8.21;98.58;98306.31;4188609;28;20146;-71
2022/05/25 02:56:54;;;;;;;3.95;1.60;;;;;;;8.29;95.98;98308.03;4187910;28;20036;-71
2022/05/25 02:58:55;;;;;;;3.20;1.85;;;;;;;8.39;94.57;98320.44;4187610;28;20200;-71
2022/05/25 03:00:55;;;;;;;2.88;1.80;;;;;;;8.47;93.83;98324.91;4188471;28;20041;-71
2022/05/25 03:02:56;;;;;;;4.88;1.70;;;;;;;8.55;93.24;98334.09;4202222;27;20487;-71
2022/05/25 03:04:56;;;;;;;4.05;2.05;;;;;;;8.62;92.93;98329.50;4197145;27;20549;-71
2022/05/25 03:06:57;;;;;;;5.57;2.10;;;;;;;8.65;92.48;98326.00;4188287;28;20067;-71
2022/05/25 03:08:57;;;;;;;2.33;1.77;;;;;;;8.60;93.07;98329.06;4187252;28;20049;-71
2022/05/25 03:10:57;;;;;;;3.25;2.13;;;;;;;8.46;93.63;98334.34;4187687;28;20120;-71
2022/05/25 03:12:58;;;;;;;2.90;2.10;;;;;;;8.38;93.23;98330.66;4188201;28;20446;-71
2022/05/25 03:14:58;;;;;;;4.65;1.92;;;;;;;8.36;93.43;98349.53;4187802;28;20056;-71
2022/05/25 03:17:04;;;;;;;5.10;2.28;;;;;;;8.29;93.98;98348.56;4196983;27;20435;-71
2022/05/25 03:19:06;;;;;;;6.13;2.38;;;;;;;8.21;95.09;98353.16;4202591;27;20096;-71
2022/05/25 03:21:08;;;;;;;5.07;2.00;;;;;;;8.10;95.53;98346.63;4198071;27;20044;-71
2022/05/25 03:23:08;;;;;;;3.05;2.15;;;;;;;8.03;96.03;98352.03;4188732;28;20515;-71
2022/05/25 03:25:09;;;;;;;3.08;1.90;;;;;;;7.98;96.22;98358.63;4202814;28;20131;-71
2022/05/25 03:27:09;;;;;;;6.60;2.40;;;;;;;7.90;97.49;98351.38;4193410;27;20621;-71
2022/05/25 03:29:11;;;;;;;4.07;2.20;;;;;;;7.84;99.53;98356.38;4187142;28;20051;-71
2022/05/25 03:31:12;;;;;;;4.18;2.30;;;;;;;7.85;98.77;98357.97;4191643;28;20507;-71
2022/05/25 03:33:13;;;;;;;4.22;2.25;;;;;;;7.88;98.60;98353.69;4201744;27;20052;-71
2022/05/25 03:35:14;;;;;;;7.50;2.28;;;;;;;7.90;98.08;98365.16;4187655;28;20159;-71
2022/05/25 03:37:15;;;;;;;4.70;2.20;;;;;;;7.90;97.35;98373.41;4193504;28;20090;-71
2022/05/25 03:39:15;;;;;;;3.20;1.63;;;;;;;7.87;98.77;98374.94;4193445;27;20071;-71
2022/05/25 03:41:17;;;;;;;2.92;2.22;;;;;;;7.88;98.45;98376.53;4187607;28;20048;-71
2022/05/25 03:43:19;;;;;;;6.32;2.38;;;;;;;7.89;98.28;98378.13;4187335;28;20047;-71
2022/05/25 03:45:19;;;;;;;5.95;2.25;;;;;;;7.91;98.19;98377.75;4187799;28;20250;-71
2022/05/25 03:47:19;;;;;;;6.55;2.53;;;;;;;7.91;98.11;98380.50;4187098;28;20046;-71
2022/05/25 03:49:20;;;;;;;5.20;2.00;;;;;;;7.93;97.34;98378.19;4186955;28;20082;-71
2022/05/25 03:51:20;;;;;;;3.70;1.90;;;;;;;8.00;97.17;98380.28;4187524;28;20897;-71
2022/05/25 03:53:21;;;;;;;4.70;1.83;;;;;;;8.06;96.08;98376.88;4187433;28;20496;-71
2022/05/25 03:55:21;;;;;;;6.15;2.15;;;;;;;8.15;95.72;98382.97;4191582;28;20569;-71
2022/05/25 03:57:22;;;;;;;3.47;2.28;;;;;;;8.24;94.16;98374.47;4187612;28;20350;-71
2022/05/25 03:59:22;;;;;;;7.85;2.40;;;;;;;8.25;94.56;98378.03;4186448;28;20362;-71
2022/05/25 04:01:22;;;;;;;7.55;2.35;;;;;;;8.22;96.00;98379.56;4181280;28;20130;-71
2022/05/25 04:03:23;;;;;;;2.80;2.08;;;;;;;8.25;94.70;98384.31;4188938;28;20181;-71
2022/05/25 04:05:25;;;;;;;3.78;2.17;;;;;;;8.29;94.58;98385.22;4194447;27;20060;-71
2022/05/25 04:07:26;;;;;;;6.78;2.00;;;;;;;8.35;94.15;98383.75;4187206;28;20036;-71
2022/05/25 04:09:26;;;;;;;5.05;2.28;;;;;;;8.40;94.02;98394.50;4187157;28;20063;-71
2022/05/25 04:11:26;;;;;;;3.70;2.78;;;;;;;8.39;94.52;98392.91;4187323;28;20307;-71
2022/05/25 04:13:27;;;;;;;3.75;2.45;;;;;;;8.41;94.85;98398.03;4187001;28;20520;-71
2022/05/25 04:15:30;;;;;;;5.82;2.10;;;;;;;8.41;95.27;98396.09;4187176;28;20421;-71
2022/05/25 04:17:34;;;;;;;6.20;2.08;;;;;;;8.39;95.10;98394.88;4186902;28;20036;-71
2022/05/25 04:19:38;;;;;;;4.13;2.30;;;;;;;8.39;95.69;98394.88;4186859;28;20805;-71
2022/05/25 04:21:39;;;;;;;4.55;2.55;;;;;;;8.39;95.17;98401.16;4187824;28;20097;-71
2022/05/25 04:23:40;;;;;;;4.32;2.40;;;;;;;8.35;96.95;98396.75;4187311;28;20409;-71
2022/05/25 04:25:41;;;;;;;3.17;2.38;;;;;;;8.34;97.01;98395.91;4187369;28;20033;-71
2022/05/25 04:27:43;;;;;;;2.90;2.03;;;;;;;8.33;96.97;98402.59;4187543;28;20451;-71
2022/05/25 04:29:43;;;;;;;4.53;2.17;;;;;;;8.34;96.33;98408.91;4186884;28;20436;-71
2022/05/25 04:31:43;;;;;;;3.92;2.28;;;;;;;8.34;96.17;98404.19;4187374;28;20091;-71
2022/05/25 04:33:44;;;;;;;7.38;2.90;;;;;;;8.33;97.03;98408.09;4187866;28;20040;-71
2022/05/25 04:35:44;;;;;;;3.70;2.33;;;;;;;8.30;97.62;98402.53;4190977;27;20044;-71
2022/05/25 04:37:54;;;;;;;10.40;2.60;;;;;;;8.31;97.20;98404.13;4187781;28;20443;-71
2022/05/25 04:39:55;;;;;;;6.43;2.63;;;;;;;8.32;96.85;98394.69;4189470;28;20127;-71
2022/05/25 04:41:55;;;;;;;5.65;2.25;;;;;;;8.33;97.59;98408.09;4201949;27;20079;-71
2022/05/25 04:43:55;;;;;;;6.88;2.30;;;;;;;8.34;97.89;98401.44;4187065;28;20190;-71
2022/05/25 04:45:59;;;;;;;2.25;1.88;;;;;;;8.34;98.48;98404.19;4193094;28;20055;-71
2022/05/25 04:48:01;;;;;;;2.88;2.30;;;;;;;8.33;98.89;98397.09;4193978;28;20355;-71
2022/05/25 04:50:01;;;;;;;2.40;1.70;;;;;;;8.37;99.54;98405.47;4186026;28;20154;-72
2022/05/25 04:52:02;;;;;;;3.20;2.30;;;;;;;8.38;99.82;98404.31;4186583;28;20056;-71
2022/05/25 04:54:03;;;;;;;4.82;2.40;;;;;;;8.42;99.80;98407.91;4186043;28;20143;-71
2022/05/25 04:58:26;;;;;;;3.72;2.35;;;;;;;8.52;100.00;98421.09;4198077;28;20447;-71
2022/05/25 05:00:28;;;;;;;7.43;2.35;;;;;;;8.54;100.00;98413.28;4187546;27;20482;-71
2022/05/25 05:02:29;;;;;;;5.80;2.78;;;;;;;8.60;100.00;98428.34;4193572;27;20374;-71
2022/05/25 05:04:29;;;;;;;4.00;2.53;;;;;;;8.62;100.00;98417.75;4188265;28;20433;-71
2022/05/25 05:06:30;;;;;;;5.88;2.50;;;;;;;8.67;100.00;98420.19;4187174;28;20116;-71
2022/05/25 05:08:30;;;;;;;8.10;2.72;;;;;;;8.73;100.00;98426.22;4187647;27;20036;-71
2022/05/25 05:10:31;;;;;;;6.60;2.72;;;;;;;8.78;100.00;98428.69;4198487;27;20109;-71
2022/05/25 05:12:31;;;;;;;6.60;2.42;;;;;;;8.85;98.99;98428.78;4187006;28;20048;-71
2022/05/25 05:14:32;;;;;;;4.53;2.42;;;;;;;8.93;96.45;98424.97;4186842;27;20204;-71
2022/05/25 05:16:32;;;;;;;4.22;2.40;;;;;;;9.04;95.64;98427.13;4188996;28;20523;-71
2022/05/25 05:18:33;;;;;;;3.47;2.50;;;;;;;9.07;96.66;98421.66;4193423;27;20064;-71
2022/05/25 05:20:34;;;;;;;8.95;2.80;;;;;;;9.12;96.69;98423.34;4187328;28;20055;-71
2022/05/25 05:22:34;;;;;;;3.42;2.47;;;;;;;9.22;96.06;98436.50;4186593;28;20489;-71
2022/05/25 05:24:34;;;;;;;3.97;2.38;;;;;;;9.31;95.41;98428.75;4186654;28;20500;-71
2022/05/25 05:26:36;;;;;;;3.38;2.47;;;;;;;9.41;94.66;98439.16;4196311;28;20055;-71
2022/05/25 05:28:40;;;;;;;7.72;2.80;;;;;;;9.48;93.05;98438.47;4194712;28;20123;-71
2022/05/25 05:30:47;;;;;;;3.60;2.40;;;;;;;9.55;92.42;98438.59;4186772;28;20399;-71
2022/05/25 05:32:48;;;;;;;4.07;2.40;;;;;;;9.66;91.67;98449.78;4187004;28;20056;-71
2022/05/25 05:34:49;;;;;;;3.53;2.70;;;;;;;9.72;92.19;98454.63;4185593;28;20036;-71
2022/05/25 05:36:56;;;;;;;3.00;2.60;;;;;;;9.80;93.10;98444.47;4180497;27;20151;-71
2022/05/25 05:39:00;;;;;;;3.53;2.30;;;;;;;9.91;93.50;98450.13;4184522;27;20072;-71
2022/05/25 05:41:00;;;;;;;4.13;2.42;;;;;;;9.98;93.46;98444.72;4185553;28;20047;-71
2022/05/25 05:43:04;;;;;;;4.18;2.10;;;;;;;10.00;90.51;98443.16;4188288;28;20051;-71
2022/05/25 05:45:14;;;;;;;3.03;2.20;;;;;;;10.01;90.42;98453.06;4185519;28;20045;-71
2022/05/25 05:47:20;;;;;;;5.45;2.50;;;;;;;10.03;90.23;98447.94;4176630;28;20072;-71
2022/05/25 05:49:20;;;;;;;4.30;2.45;;;;;;;10.06;90.17;98452.72;4182324;27;20033;-71
2022/05/25 05:51:21;;;;;;;3.30;2.30;;;;;;;10.06;91.04;98461.00;4188122;28;20147;-71
2022/05/25 05:53:24;;;;;;;3.72;2.33;;;;;;;10.08;91.79;98455.91;4191642;28;20480;-71
2022/05/25 05:55:25;;;;;;;3.58;2.38;;;;;;;10.12;89.67;98455.97;4186674;28;20289;-70
2022/05/25 05:57:25;;;;;;;6.85;2.65;;;;;;;10.19;89.15;98456.06;4183900;28;20044;-71
2022/05/25 05:59:26;;;;;;;4.90;2.63;;;;;;;10.24;89.03;98463.25;4178522;28;20051;-71
2022/05/25 06:01:27;;;;;;;4.15;2.20;;;;;;;10.30;88.21;98458.97;4186230;28;20480;-71
2022/05/25 06:03:27;;;;;;;3.72;2.40;;;;;;;10.44;87.28;98455.59;4186848;28;20041;-71
2022/05/25 06:05:28;;;;;;;4.70;2.13;;;;;;;10.57;85.44;98459.69;4183869;28;20040;-71
2022/05/25 06:07:28;;;;;;;4.18;2.67;;;;;;;10.65;88.06;98462.13;4186509;28;20508;-71
2022/05/25 06:09:29;;;;;;;3.88;2.47;;;;;;;10.66;86.49;98458.19;4187273;28;20044;-71
2022/05/25 06:11:29;;;;;;;3.88;2.20;;;;;;;10.76;87.94;98467.00;4185528;28;20043;-71
2022/05/25 06:13:30;;;;;;;5.78;2.35;;;;;;;10.80;87.22;98467.84;4193949;28;20033;-71
2022/05/25 06:20:09;;;;;;;2.58;2.10;;;;;;;11.03;87.67;98473.22;4184536;28;20043;-71
2022/05/25 06:22:15;;;;;;;4.53;2.10;;;;;;;11.11;88.55;98477.63;4186665;28;20029;-71
2022/05/25 06:24:15;;;;;;;7.07;3.10;;;;;;;11.18;88.65;98474.94;4186355;28;20424;-71
2022/05/25 06:26:17;;;;;;;3.97;2.35;;;;;;;11.27;86.59;98478.19;4186092;28;20071;-71
2022/05/25 06:28:17;;;;;;;4.53;2.30;;;;;;;11.45;86.93;98470.00;4187058;28;20059;-71
2022/05/25 06:30:18;;;;;;;4.90;2.50;;;;;;;11.58;87.92;98478.81;4191621;28;20373;-71
2022/05/25 06:32:22;;;;;;;3.80;2.03;;;;;;;11.77;85.43;98486.88;4191677;27;20123;-71
2022/05/25 06:34:23;;;;;;;7.07;2.65;;;;;;;11.92;85.29;98490.56;4193771;28;20450;-71
2022/05/25 06:36:29;;;;;;;3.50;2.83;;;;;;;12.00;85.73;98492.22;4189802;27;20052;-71
2022/05/25 06:38:29;;;;;;;5.07;2.10;;;;;;;12.10;84.91;98499.78;4194077;28;20127;-71
2022/05/25 06:40:30;;;;;;;2.80;2.15;;;;;;;12.18;85.81;98489.53;4190561;27;20079;-71
2022/05/25 06:42:30;;;;;;;4.53;2.40;;;;;;;12.25;86.59;98495.91;4192667;28;20491;-71
2022/05/25 06:44:31;;;;;;;4.60;2.53;;;;;;;12.31;86.75;98497.09;4186191;28;20223;-71
2022/05/25 06:46:31;;;;;;;5.93;2.42;;;;;;;12.30;87.39;98505.81;4198298;27;20465;-71
2022/05/25 06:48:31;;;;;;;4.10;2.15;;;;;;;12.32;85.72;98504.25;4184963;28;20048;-71
2022/05/25 06:50:32;;;;;;;5.88;2.47;;;;;;;12.33;85.52;98503.09;4188129;28;20514;-71
2022/05/25 06:52:32;;;;;;;5.80;2.75;;;;;;;12.48;84.54;98503.13;4186636;28;20566;-71
2022/05/25 06:54:33;;;;;;;7.07;2.00;;;;;;;12.57;84.14;98495.22;4201368;28;20040;-71
2022/05/25 06:56:34;;;;;;;2.67;1.95;;;;;;;12.75;81.17;98496.13;4195684;28;20036;-71
2022/05/25 06:58:35;;;;;;;3.95;2.35;;;;;;;12.87;80.47;98504.06;4189165;28;20063;-71
2022/05/25 07:00:36;;;;;;;2.53;2.05;;;;;;;12.92;80.07;98497.34;4196182;27;20059;-70
2022/05/25 07:02:36;;;;;;;3.67;2.10;;;;;;;13.04;77.88;98501.72;4186401;28;20110;-71
2022/05/25 07:04:37;;;;;;;3.97;1.83;;;;;;;13.19;75.81;98493.06;4188653;27;20143;-71
2022/05/25 07:06:39;;;;;;;4.65;2.13;;;;;;;13.32;75.81;98499.03;4187612;28;20086;-71
2022/05/25 07:08:39;;;;;;;2.60;1.48;;;;;;;13.37;72.69;98501.41;4187289;28;20044;-71
2022/05/25 07:10:45;;;;;;;4.30;1.75;;;;;;;13.43;72.96;98508.16;4187528;28;20048;-71
2022/05/25 07:12:45;;;;;;;2.85;1.80;;;;;;;13.49;71.63;98503.81;4187402;28;20422;-71
2022/05/25 07:14:46;;;;;;;2.38;1.85;;;;;;;13.54;72.08;98505.38;4187623;28;20037;-71
2022/05/25 07:16:46;;;;;;;3.00;1.90;;;;;;;13.57;70.24;98503.78;4187658;28;20469;-71
2022/05/25 07:18:47;;;;;;;3.72;2.00;;;;;;;13.62;69.68;98509.75;4186747;28;20062;-71
2022/05/25 07:20:47;;;;;;;2.13;1.67;;;;;;;13.58;68.94;98508.97;4198365;27;20105;-71
2022/05/25 07:22:48;;;;;;;3.58;1.60;;;;;;;13.74;70.46;98503.00;4199402;27;20044;-71
2022/05/25 07:24:48;;;;;;;7.53;3.25;;;;;;;13.83;71.74;98506.16;4188833;28;20064;-71
2022/05/25 07:26:49;;;;;;;2.00;1.73;;;;;;;13.95;70.12;98510.50;4188506;28;20037;-71
2022/05/25 07:28:53;;;;;;;5.00;1.80;;;;;;;14.00;70.03;98499.78;4187417;28;20040;-71
2022/05/25 07:30:58;;;;;;;3.38;1.40;;;;;;;14.15;68.80;98502.50;4188330;28;20048;-71
2022/05/25 07:32:59;;;;;;;5.97;1.60;;;;;;;14.32;63.51;98505.28;4188497;28;20064;-71
2022/05/25 07:35:04;;;;;;;2.53;1.55;;;;;;;14.38;64.28;98502.84;4201856;27;20052;-71
2022/05/25 07:37:10;;;;;;;5.10;2.03;;;;;;;14.34;64.20;98502.88;4204419;27;20375;-71
2022/05/25 07:39:14;;;;;;;1.63;1.30;;;;;;;14.34;66.05;98505.66;4187620;28;20036;-71
2022/05/25 07:41:16;;;;;;;1.90;1.38;;;;;;;14.35;65.82;98492.53;4188134;28;20442;-71
2022/05/25 07:43:19;;;;;;;3.00;1.40;;;;;;;14.38;65.27;98499.28;4186760;28;20044;-71
2022/05/25 07:45:20;;;;;;;1.80;1.33;;;;;;;14.44;65.75;98500.47;4188166;28;20341;-71
2022/05/25 07:47:21;;;;;;;2.30;1.90;;;;;;;14.57;67.73;98504.44;4187972;28;20664;-71
2022/05/25 07:49:26;;;;;;;3.80;1.27;;;;;;;14.63;66.66;98500.00;4187155;28;20063;-71
2022/05/25 07:51:27;;;;;;;2.25;1.60;;;;;;;14.70;66.96;98499.19;4187751;28;20044;-71
2022/05/25 07:54:12;;;;;;;1.92;1.60;;;;;;;14.77;66.60;98499.16;4187758;28;20388;-71
2022/05/25 07:55:48;;;;;;;1.92;1.40;;;;;;;14.81;66.65;98494.34;4180571;28;20123;-71
2022/05/25 07:57:48;;;;;;;3.80;1.42;;;;;;;14.94;66.00;98500.25;4200109;28;20515;-71
2022/05/25 07:59:49;;;;;;;3.53;1.40;;;;;;;15.01;66.29;98508.56;4201758;27;20104;-71
2022/05/25 08:06:38;;;;;;;3.80;1.77;;;;;;;15.14;64.78;98499.34;4187591;28;20056;-71
2022/05/25 08:08:38;;;;;;;2.05;1.70;;;;;;;15.04;63.99;98502.97;4186931;28;20465;-71
2022/05/25 08:10:38;;;;;;;3.08;1.50;;;;;;;15.02;64.32;98504.59;4187761;28;20154;-71
2022/05/25 08:12:40;;;;;;;3.85;1.75;;;;;;;14.97;64.87;98499.44;4192102;28;20044;-71
2022/05/25 08:14:41;;;;;;;2.53;1.92;;;;;;;14.98;65.95;98496.25;4202223;27;20040;-71
2022/05/25 08:16:41;;;;;;;3.05;1.52;;;;;;;15.14;67.36;98495.75;4203332;27;20036;-71
2022/05/25 08:18:41;;;;;;;1.42;1.30;;;;;;;15.16;66.52;98491.38;4201309;27;20048;-71
2022/05/25 08:20:43;;;;;;;1.42;1.23;;;;;;;15.25;68.93;98492.91;4202271;27;20060;-71
2022/05/25 08:22:43;;;;;;;2.90;1.45;;;;;;;15.41;67.62;98495.97;4190761;28;20519;-72
2022/05/25 08:24:43;;;;;;;3.80;1.60;;;;;;;15.55;64.95;98503.41;4186879;28;20049;-72
2022/05/25 08:26:44;;;;;;;2.58;1.35;;;;;;;15.70;64.51;98499.34;4199014;27;20115;-72
2022/05/25 08:28:44;;;;;;;4.10;1.50;;;;;;;15.76;63.88;98513.63;4193706;28;20439;-69
2022/05/25 08:30:45;;;;;;;6.57;2.50;;;;;;;15.86;63.05;98507.97;4186951;28;20052;-69
2022/05/25 08:32:46;;;;;;;4.78;2.47;;;;;;;16.05;61.68;98500.19;4187358;28;20040;-70
2022/05/25 08:34:46;;;;;;;3.03;1.40;;;;;;;16.26;64.21;98516.75;4187286;28;20310;-70
2022/05/25 08:36:47;;;;;;;2.45;1.35;;;;;;;16.39;60.10;98506.63;4199038;28;20075;-70
2022/05/25 08:38:48;;;;;;;2.13;1.15;;;;;;;16.32;56.44;98511.50;4201339;27;20045;-70
2022/05/25 08:40:48;;;;;;;2.72;1.17;;;;;;;16.27;58.14;98512.75;4201832;27;20396;-70
2022/05/25 08:43:00;;;;;;;4.40;2.63;;;;;;;16.18;58.88;98501.28;4202387;27;20068;-70
2022/05/25 08:45:01;;;;;;;3.17;1.50;;;;;;;16.13;59.80;98502.50;4195426;27;20525;-70
2022/05/25 08:47:04;;;;;;;2.53;1.55;;;;;;;16.27;58.03;98512.75;4186219;28;20040;-70
2022/05/25 08:49:11;;;;;;;1.77;1.20;;;;;;;16.44;58.11;98513.75;4186453;28;20041;-70
2022/05/25 08:51:16;;;;;;;2.20;1.20;;;;;;;16.64;59.29;98505.56;4185553;28;20044;-70
2022/05/25 08:53:17;;;;;;;4.10;2.00;;;;;;;16.80;58.05;98503.78;4190183;28;20044;-70
2022/05/25 08:55:32;;;;;;;3.03;1.27;;;;;;;16.92;55.98;98499.63;4200211;27;20080;-70
2022/05/25 08:57:36;;;;;;;1.83;1.10;;;;;;;17.08;53.78;98496.19;4187028;28;20049;-70
2022/05/25 08:59:47;;;;;;;2.25;1.20;;;;;;;17.17;53.69;98509.66;4185690;28;20748;-70
2022/05/25 09:01:56;;;;;;;2.97;1.10;;;;;;;17.25;54.40;98505.53;4186671;28;20044;-70
2022/05/25 09:04:06;;;;;;;0.95;0.80;;;;;;;17.44;48.87;98507.63;4187001;28;20044;-70
2022/05/25 09:06:21;;;;;;;3.63;1.08;;;;;;;17.55;49.40;98505.47;4186524;28;20174;-70
2022/05/25 09:08:59;;;;;;;1.45;0.70;;;;;;;17.48;49.63;98502.00;4186380;28;20182;-71
2022/05/25 09:11:07;;;;;;;1.75;0.70;;;;;;;17.52;48.99;98492.31;4186296;28;20045;-70
2022/05/25 09:13:18;;;;;;;2.25;0.77;;;;;;;17.41;50.83;98512.06;4201093;27;20749;-70
2022/05/25 09:15:25;;;;;;;1.95;0.70;;;;;;;17.44;51.17;98506.84;4194178;28;20129;-70
2022/05/25 09:17:56;;;;;;;1.05;0.80;;;;;;;17.57;49.50;98502.25;4202401;27;20778;-70
2022/05/25 09:19:56;;;;;;;1.80;0.70;;;;;;;17.02;50.11;98514.66;4195246;27;20578;-70
2022/05/25 09:22:00;;;;;;;3.33;0.90;;;;;;;16.83;50.01;98514.09;4186077;28;20082;-70
2022/05/25 09:24:06;;;;;;;3.03;1.17;;;;;;;17.06;52.34;98521.00;4186424;28;20403;-71
2022/05/25 09:26:07;;;;;;;1.17;0.90;;;;;;;17.24;53.29;98517.94;4186140;28;20041;-71
2022/05/25 09:28:15;;;;;;;2.30;1.05;;;;;;;17.25;51.37;98522.31;4186873;28;20066;-71
2022/05/25 09:30:16;;;;;;;0.80;0.80;;;;;;;17.50;51.02;98522.72;4192052;28;20074;-71
2022/05/25 09:32:38;;;;;;;2.95;0.98;;;;;;;17.67;50.96;98518.06;4185121;28;20275;-71
2022/05/25 09:34:51;;;;;;;1.80;0.90;;;;;;;17.81;50.87;98520.66;4185741;28;20421;-70
2022/05/25 09:36:55;;;;;;;;;;;;;;;17.92;48.26;98521.25;4186776;28;20048;-71
2022/05/25 09:39:06;;;;;;;2.28;1.00;;;;;;;17.72;49.82;98519.63;4185674;28;20309;-70
2022/05/25 09:41:10;;;;;;;1.25;0.80;;;;;;;17.86;49.90;98517.38;4186123;28;20037;-71
2022/05/25 09:43:19;;;;;;;1.60;1.00;;;;;;;17.86;49.09;98510.97;4186113;28;20346;-70
2022/05/25 09:45:20;;;;;;;1.67;0.90;;;;;;;17.67;49.83;98516.06;4195273;28;20133;-70
2022/05/25 09:47:32;;;;;;;1.90;1.20;;;;;;;17.38;50.02;98514.94;4200680;27;20426;-70
2022/05/25 09:49:47;;;;;;;3.50;1.00;;;;;;;17.31;48.00;98526.22;4185589;28;20047;-70
2022/05/25 09:51:52;;;;;;;2.13;0.80;;;;;;;17.41;50.60;98522.47;4191769;28;20238;-70
2022/05/25 09:54:20;;;;;;;4.75;0.80;;;;;;;17.46;49.00;98512.81;4192389;28;20040;-70
2022/05/25 09:56:30;;;;;;;0.63;0.63;;;;;;;17.76;51.59;98514.75;4185823;28;20492;-71
2022/05/25 09:58:35;;;;;;;1.98;1.05;;;;;;;17.75;49.11;98513.19;4185332;28;20340;-70
2022/05/25 10:00:36;;;;;;;1.75;1.05;;;;;;;17.53;49.39;98524.66;4186234;28;20179;-70
2022/05/25 10:02:41;;;;;;;3.75;1.08;;;;;;;17.35;50.06;98533.34;4186318;28;20501;-70